sensor_id;sensor_type;location;lat;lon;timestamp;temperature;humidity
11043;DHT22;5574;48.786;10.120;2022-08-21T00:00:00;16.60;99.90
11043;DHT22;5574;48.786;10.120;2022-08-21T00:02:28;16.60;99.90
11043;DHT22;5574;48.786;10.120;2022-08-21T00:04:54;16.50;99.90
11043;DHT22;5574;48.786;10.120;2022-08-21T00:07:21;16.50;99.90
11043;DHT22;5574;48.786;10.120;2022-08-21T00:09:48;16.50;99.90
11043;DHT22;5574;48.786;10.120;2022-08-21T00:12:14;16.50;99.90
11043;DHT22;5574;48.786;10.120;2022-08-21T00:14:42;16.50;99.90
11043;DHT22;5574;48.786;10.120;2022-08-21T00:17:09;16.40;99.90
11043;DHT22;5574;48.786;10.120;2022-08-21T00:19:36;16.40;99.90
11043;DHT22;5574;48.786;10.120;2022-08-21T00:22:03;16.30;99.90
11043;DHT22;5574;48.786;10.120;2022-08-21T00:24:30;16.30;99.90
11043;DHT22;5574;48.786;10.120;2022-08-21T00:26:56;16.30;99.90
11043;DHT22;5574;48.786;10.120;2022-08-21T00:29:24;16.30;99.90
11043;DHT22;5574;48.786;10.120;2022-08-21T00:31:52;16.20;99.90
11043;DHT22;5574;48.786;10.120;2022-08-21T00:34:18;16.20;99.90
11043;DHT22;5574;48.786;10.120;2022-08-21T00:36:45;16.20;99.90
11043;DHT22;5574;48.786;10.120;2022-08-21T00:39:12;16.10;99.90
11043;DHT22;5574;48.786;10.120;2022-08-21T00:41:40;16.10;99.90
11043;DHT22;5574;48.786;10.120;2022-08-21T00:44:10;16.10;99.90
11043;DHT22;5574;48.786;10.120;2022-08-21T00:46:40;16.10;99.90
11043;DHT22;5574;48.786;10.120;2022-08-21T00:49:10;16.10;99.90
11043;DHT22;5574;48.786;10.120;2022-08-21T00:51:39;16.00;99.90
11043;DHT22;5574;48.786;10.120;2022-08-21T00:54:07;16.00;99.90
11043;DHT22;5574;48.786;10.120;2022-08-21T00:56:36;16.00;99.90
11043;DHT22;5574;48.786;10.120;2022-08-21T00:59:03;15.90;99.90
11043;DHT22;5574;48.786;10.120;2022-08-21T01:01:30;15.90;99.90
11043;DHT22;5574;48.786;10.120;2022-08-21T01:03:57;15.80;99.90
11043;DHT22;5574;48.786;10.120;2022-08-21T01:06:25;15.80;99.90
11043;DHT22;5574;48.786;10.120;2022-08-21T01:08:52;15.70;99.90
11043;DHT22;5574;48.786;10.120;2022-08-21T01:11:19;15.70;99.90
11043;DHT22;5574;48.786;10.120;2022-08-21T01:13:47;15.70;99.90
11043;DHT22;5574;48.786;10.120;2022-08-21T01:16:17;15.70;99.90
11043;DHT22;5574;48.786;10.120;2022-08-21T01:18:45;15.70;99.90
11043;DHT22;5574;48.786;10.120;2022-08-21T01:21:16;15.70;99.90
11043;DHT22;5574;48.786;10.120;2022-08-21T01:23:46;15.70;99.90
11043;DHT22;5574;48.786;10.120;2022-08-21T01:26:15;15.60;99.90
11043;DHT22;5574;48.786;10.120;2022-08-21T01:28:47;15.60;99.90
11043;DHT22;5574;48.786;10.120;2022-08-21T01:31:19;15.60;99.90
11043;DHT22;5574;48.786;10.120;2022-08-21T01:33:47;15.50;99.90
11043;DHT22;5574;48.786;10.120;2022-08-21T01:36:15;15.50;99.90
11043;DHT22;5574;48.786;10.120;2022-08-21T01:38:42;15.50;99.90
11043;DHT22;5574;48.786;10.120;2022-08-21T01:41:09;15.50;99.90
11043;DHT22;5574;48.786;10.120;2022-08-21T01:43:36;15.50;99.90
11043;DHT22;5574;48.786;10.120;2022-08-21T01:46:03;15.50;99.90
11043;DHT22;5574;48.786;10.120;2022-08-21T01:48:30;15.50;99.90
11043;DHT22;5574;48.786;10.120;2022-08-21T01:50:57;15.50;99.90
11043;DHT22;5574;48.786;10.120;2022-08-21T01:53:25;15.50;99.90
11043;DHT22;5574;48.786;10.120;2022-08-21T01:55:51;15.50;99.90
11043;DHT22;5574;48.786;10.120;2022-08-21T01:58:18;15.50;99.90
11043;DHT22;5574;48.786;10.120;2022-08-21T02:00:45;15.50;99.90
11043;DHT22;5574;48.786;10.120;2022-08-21T02:03:12;15.40;99.90
11043;DHT22;5574;48.786;10.120;2022-08-21T02:05:38;15.40;99.90
11043;DHT22;5574;48.786;10.120;2022-08-21T02:08:06;15.40;99.90
11043;DHT22;5574;48.786;10.120;2022-08-21T02:10:34;15.40;99.90
11043;DHT22;5574;48.786;10.120;2022-08-21T02:13:01;15.40;99.90
11043;DHT22;5574;48.786;10.120;2022-08-21T02:15:29;15.40;99.90
11043;DHT22;5574;48.786;10.120;2022-08-21T02:17:59;15.40;99.90
11043;DHT22;5574;48.786;10.120;2022-08-21T02:20:28;15.40;99.90
11043;DHT22;5574;48.786;10.120;2022-08-21T02:22:55;15.40;99.90
11043;DHT22;5574;48.786;10.120;2022-08-21T02:25:24;15.40;99.90
11043;DHT22;5574;48.786;10.120;2022-08-21T02:27:54;15.30;99.90
11043;DHT22;5574;48.786;10.120;2022-08-21T02:30:24;15.30;99.90
11043;DHT22;5574;48.786;10.120;2022-08-21T02:32:51;15.30;99.90
11043;DHT22;5574;48.786;10.120;2022-08-21T02:35:18;15.30;99.90
11043;DHT22;5574;48.786;10.120;2022-08-21T02:37:47;15.20;99.90
11043;DHT22;5574;48.786;10.120;2022-08-21T02:40:16;15.20;99.90
11043;DHT22;5574;48.786;10.120;2022-08-21T02:42:43;15.20;99.90
11043;DHT22;5574;48.786;10.120;2022-08-21T02:45:11;15.20;99.90
11043;DHT22;5574;48.786;10.120;2022-08-21T02:47:39;15.20;99.90
11043;DHT22;5574;48.786;10.120;2022-08-21T02:50:06;15.20;99.90
11043;DHT22;5574;48.786;10.120;2022-08-21T02:52:33;15.20;99.90
11043;DHT22;5574;48.786;10.120;2022-08-21T02:55:00;15.20;99.90
11043;DHT22;5574;48.786;10.120;2022-08-21T02:57:27;15.20;99.90
11043;DHT22;5574;48.786;10.120;2022-08-21T02:59:54;15.20;99.90
11043;DHT22;5574;48.786;10.120;2022-08-21T03:02:22;15.10;99.90
11043;DHT22;5574;48.786;10.120;2022-08-21T03:04:48;15.10;99.90
11043;DHT22;5574;48.786;10.120;2022-08-21T03:07:15;15.10;99.90
11043;DHT22;5574;48.786;10.120;2022-08-21T03:09:42;15.10;99.90
11043;DHT22;5574;48.786;10.120;2022-08-21T03:12:09;15.10;99.90
11043;DHT22;5574;48.786;10.120;2022-08-21T03:14:35;15.00;99.90
11043;DHT22;5574;48.786;10.120;2022-08-21T03:17:03;15.00;99.90
11043;DHT22;5574;48.786;10.120;2022-08-21T03:19:31;15.00;99.90
11043;DHT22;5574;48.786;10.120;2022-08-21T03:21:58;15.00;99.90
11043;DHT22;5574;48.786;10.120;2022-08-21T03:24:25;15.00;99.90
11043;DHT22;5574;48.786;10.120;2022-08-21T03:26:51;15.00;99.90
11043;DHT22;5574;48.786;10.120;2022-08-21T03:29:18;15.00;99.90
11043;DHT22;5574;48.786;10.120;2022-08-21T03:31:45;15.00;99.90
11043;DHT22;5574;48.786;10.120;2022-08-21T03:34:11;14.90;99.90
11043;DHT22;5574;48.786;10.120;2022-08-21T03:36:40;14.90;99.90
11043;DHT22;5574;48.786;10.120;2022-08-21T03:39:06;14.90;99.90
11043;DHT22;5574;48.786;10.120;2022-08-21T03:41:33;14.90;99.90
11043;DHT22;5574;48.786;10.120;2022-08-21T03:44:00;14.90;99.90
11043;DHT22;5574;48.786;10.120;2022-08-21T03:46:26;14.90;99.90
11043;DHT22;5574;48.786;10.120;2022-08-21T03:48:53;14.80;99.90
11043;DHT22;5574;48.786;10.120;2022-08-21T03:51:21;14.80;99.90
11043;DHT22;5574;48.786;10.120;2022-08-21T03:53:49;14.70;99.90
11043;DHT22;5574;48.786;10.120;2022-08-21T03:56:15;14.70;99.90
11043;DHT22;5574;48.786;10.120;2022-08-21T03:58:42;14.70;99.90
11043;DHT22;5574;48.786;10.120;2022-08-21T04:01:09;14.60;99.90
11043;DHT22;5574;48.786;10.120;2022-08-21T04:03:36;14.70;99.90
11043;DHT22;5574;48.786;10.120;2022-08-21T04:06:04;14.70;99.90
11043;DHT22;5574;48.786;10.120;2022-08-21T04:08:31;14.70;99.90
11043;DHT22;5574;48.786;10.120;2022-08-21T04:11:00;14.70;99.90
11043;DHT22;5574;48.786;10.120;2022-08-21T04:13:27;14.70;99.90
11043;DHT22;5574;48.786;10.120;2022-08-21T04:15:54;14.70;99.90
11043;DHT22;5574;48.786;10.120;2022-08-21T04:18:21;14.60;99.90
11043;DHT22;5574;48.786;10.120;2022-08-21T04:20:50;14.60;99.90
11043;DHT22;5574;48.786;10.120;2022-08-21T04:23:18;14.60;99.90
11043;DHT22;5574;48.786;10.120;2022-08-21T04:25:44;14.60;99.90
11043;DHT22;5574;48.786;10.120;2022-08-21T04:28:13;14.60;99.90
11043;DHT22;5574;48.786;10.120;2022-08-21T04:30:39;14.60;99.90
11043;DHT22;5574;48.786;10.120;2022-08-21T04:33:06;14.50;99.90
11043;DHT22;5574;48.786;10.120;2022-08-21T04:35:33;14.50;99.90
11043;DHT22;5574;48.786;10.120;2022-08-21T04:38:00;14.50;99.90
11043;DHT22;5574;48.786;10.120;2022-08-21T04:40:27;14.50;99.90
11043;DHT22;5574;48.786;10.120;2022-08-21T04:42:56;14.50;99.90
11043;DHT22;5574;48.786;10.120;2022-08-21T04:45:26;14.50;99.90
11043;DHT22;5574;48.786;10.120;2022-08-21T04:47:55;14.40;99.90
11043;DHT22;5574;48.786;10.120;2022-08-21T04:50:25;14.40;99.90
11043;DHT22;5574;48.786;10.120;2022-08-21T04:52:54;14.40;99.90
11043;DHT22;5574;48.786;10.120;2022-08-21T04:55:22;14.40;99.90
11043;DHT22;5574;48.786;10.120;2022-08-21T04:57:50;14.40;99.90
11043;DHT22;5574;48.786;10.120;2022-08-21T05:00:19;14.40;99.90
11043;DHT22;5574;48.786;10.120;2022-08-21T05:02:48;14.40;99.90
11043;DHT22;5574;48.786;10.120;2022-08-21T05:05:17;14.40;99.90
11043;DHT22;5574;48.786;10.120;2022-08-21T05:07:44;14.40;99.90
11043;DHT22;5574;48.786;10.120;2022-08-21T05:10:12;14.40;99.90
11043;DHT22;5574;48.786;10.120;2022-08-21T05:12:39;14.40;99.90
11043;DHT22;5574;48.786;10.120;2022-08-21T05:15:08;14.40;99.90
11043;DHT22;5574;48.786;10.120;2022-08-21T05:17:35;14.50;99.90
11043;DHT22;5574;48.786;10.120;2022-08-21T05:20:04;14.60;99.90
11043;DHT22;5574;48.786;10.120;2022-08-21T05:22:31;14.70;99.90
11043;DHT22;5574;48.786;10.120;2022-08-21T05:24:57;14.70;99.90
11043;DHT22;5574;48.786;10.120;2022-08-21T05:27:24;14.80;99.90
11043;DHT22;5574;48.786;10.120;2022-08-21T05:29:51;14.80;99.90
11043;DHT22;5574;48.786;10.120;2022-08-21T05:32:17;14.90;99.90
11043;DHT22;5574;48.786;10.120;2022-08-21T05:34:44;14.80;99.90
11043;DHT22;5574;48.786;10.120;2022-08-21T05:37:13;14.90;99.90
11043;DHT22;5574;48.786;10.120;2022-08-21T05:39:40;14.90;99.90
11043;DHT22;5574;48.786;10.120;2022-08-21T05:42:07;14.90;99.90
11043;DHT22;5574;48.786;10.120;2022-08-21T05:44:34;15.00;99.90
11043;DHT22;5574;48.786;10.120;2022-08-21T05:47:05;15.00;99.90
11043;DHT22;5574;48.786;10.120;2022-08-21T05:49:32;15.10;99.90
11043;DHT22;5574;48.786;10.120;2022-08-21T05:51:58;15.20;99.90
11043;DHT22;5574;48.786;10.120;2022-08-21T05:54:27;15.30;99.90
11043;DHT22;5574;48.786;10.120;2022-08-21T05:56:54;15.40;99.90
11043;DHT22;5574;48.786;10.120;2022-08-21T05:59:21;15.50;99.90
11043;DHT22;5574;48.786;10.120;2022-08-21T06:01:47;15.50;99.90
11043;DHT22;5574;48.786;10.120;2022-08-21T06:04:14;15.60;99.90
11043;DHT22;5574;48.786;10.120;2022-08-21T06:06:41;15.70;99.90
11043;DHT22;5574;48.786;10.120;2022-08-21T06:09:08;15.80;99.90
11043;DHT22;5574;48.786;10.120;2022-08-21T06:11:36;15.80;99.90
11043;DHT22;5574;48.786;10.120;2022-08-21T06:14:03;15.80;99.90
11043;DHT22;5574;48.786;10.120;2022-08-21T06:16:32;15.80;99.90
11043;DHT22;5574;48.786;10.120;2022-08-21T06:18:59;15.80;99.90
11043;DHT22;5574;48.786;10.120;2022-08-21T06:21:25;15.80;99.90
11043;DHT22;5574;48.786;10.120;2022-08-21T06:23:52;15.90;99.90
11043;DHT22;5574;48.786;10.120;2022-08-21T06:26:19;15.90;99.90
11043;DHT22;5574;48.786;10.120;2022-08-21T06:28:47;16.00;99.90
11043;DHT22;5574;48.786;10.120;2022-08-21T06:31:16;16.10;99.90
11043;DHT22;5574;48.786;10.120;2022-08-21T06:33:44;16.30;99.90
11043;DHT22;5574;48.786;10.120;2022-08-21T06:36:11;16.60;99.90
11043;DHT22;5574;48.786;10.120;2022-08-21T06:38:38;16.70;99.90
11043;DHT22;5574;48.786;10.120;2022-08-21T06:41:05;17.00;99.90
11043;DHT22;5574;48.786;10.120;2022-08-21T06:43:32;17.00;99.90
11043;DHT22;5574;48.786;10.120;2022-08-21T06:46:00;17.20;99.90
11043;DHT22;5574;48.786;10.120;2022-08-21T06:48:27;17.30;99.90
11043;DHT22;5574;48.786;10.120;2022-08-21T06:50:55;17.50;99.90
11043;DHT22;5574;48.786;10.120;2022-08-21T06:53:22;17.60;99.90
11043;DHT22;5574;48.786;10.120;2022-08-21T06:55:49;17.80;99.90
11043;DHT22;5574;48.786;10.120;2022-08-21T06:58:16;17.80;99.90
11043;DHT22;5574;48.786;10.120;2022-08-21T07:00:46;17.90;99.90
11043;DHT22;5574;48.786;10.120;2022-08-21T07:03:19;18.00;99.90
11043;DHT22;5574;48.786;10.120;2022-08-21T07:05:45;18.00;99.90
11043;DHT22;5574;48.786;10.120;2022-08-21T07:08:12;18.20;99.90
11043;DHT22;5574;48.786;10.120;2022-08-21T07:10:39;18.30;99.90
11043;DHT22;5574;48.786;10.120;2022-08-21T07:13:06;18.40;99.90
11043;DHT22;5574;48.786;10.120;2022-08-21T07:15:32;18.60;99.90
11043;DHT22;5574;48.786;10.120;2022-08-21T07:17:59;18.60;99.90
11043;DHT22;5574;48.786;10.120;2022-08-21T07:20:28;18.80;99.90
11043;DHT22;5574;48.786;10.120;2022-08-21T07:22:56;18.90;99.90
11043;DHT22;5574;48.786;10.120;2022-08-21T07:25:23;19.00;99.90
11043;DHT22;5574;48.786;10.120;2022-08-21T07:27:50;19.10;99.90
11043;DHT22;5574;48.786;10.120;2022-08-21T07:30:17;19.20;99.90
11043;DHT22;5574;48.786;10.120;2022-08-21T07:32:43;19.30;99.90
11043;DHT22;5574;48.786;10.120;2022-08-21T07:35:10;19.40;99.90
11043;DHT22;5574;48.786;10.120;2022-08-21T07:37:38;19.40;99.90
11043;DHT22;5574;48.786;10.120;2022-08-21T07:40:06;19.50;99.90
11043;DHT22;5574;48.786;10.120;2022-08-21T07:42:33;19.60;99.90
11043;DHT22;5574;48.786;10.120;2022-08-21T07:44:59;19.60;99.90
11043;DHT22;5574;48.786;10.120;2022-08-21T07:47:26;19.80;99.90
11043;DHT22;5574;48.786;10.120;2022-08-21T07:49:53;19.90;99.90
11043;DHT22;5574;48.786;10.120;2022-08-21T07:57:32;20.10;99.90
11043;DHT22;5574;48.786;10.120;2022-08-21T07:59:59;20.20;99.90
11043;DHT22;5574;48.786;10.120;2022-08-21T08:02:26;20.40;99.90
11043;DHT22;5574;48.786;10.120;2022-08-21T08:04:53;20.40;99.90
11043;DHT22;5574;48.786;10.120;2022-08-21T08:07:20;20.50;99.90
11043;DHT22;5574;48.786;10.120;2022-08-21T08:09:47;20.60;99.90
11043;DHT22;5574;48.786;10.120;2022-08-21T08:12:13;20.80;99.90
11043;DHT22;5574;48.786;10.120;2022-08-21T08:14:42;20.90;99.90
11043;DHT22;5574;48.786;10.120;2022-08-21T08:17:08;21.10;99.90
11043;DHT22;5574;48.786;10.120;2022-08-21T08:19:35;21.20;99.90
11043;DHT22;5574;48.786;10.120;2022-08-21T08:22:12;21.30;99.90
11043;DHT22;5574;48.786;10.120;2022-08-21T08:24:39;21.40;99.90
11043;DHT22;5574;48.786;10.120;2022-08-21T08:27:06;21.50;99.90
11043;DHT22;5574;48.786;10.120;2022-08-21T08:29:33;21.60;99.90
11043;DHT22;5574;48.786;10.120;2022-08-21T08:32:02;21.60;99.90
11043;DHT22;5574;48.786;10.120;2022-08-21T08:34:29;21.70;99.90
11043;DHT22;5574;48.786;10.120;2022-08-21T08:36:55;21.80;99.90
11043;DHT22;5574;48.786;10.120;2022-08-21T08:39:23;21.80;99.90
11043;DHT22;5574;48.786;10.120;2022-08-21T08:41:53;21.90;99.90
11043;DHT22;5574;48.786;10.120;2022-08-21T08:44:22;21.90;99.90
11043;DHT22;5574;48.786;10.120;2022-08-21T08:46:50;22.00;99.90
11043;DHT22;5574;48.786;10.120;2022-08-21T08:49:22;22.10;99.90
11043;DHT22;5574;48.786;10.120;2022-08-21T08:51:53;22.20;99.90
11043;DHT22;5574;48.786;10.120;2022-08-21T08:54:26;22.20;99.90
11043;DHT22;5574;48.786;10.120;2022-08-21T08:56:58;22.30;99.90
11043;DHT22;5574;48.786;10.120;2022-08-21T08:59:27;22.30;99.90
11043;DHT22;5574;48.786;10.120;2022-08-21T09:01:56;22.40;99.90
11043;DHT22;5574;48.786;10.120;2022-08-21T09:04:26;22.50;99.90
11043;DHT22;5574;48.786;10.120;2022-08-21T09:07:01;22.60;99.90
11043;DHT22;5574;48.786;10.120;2022-08-21T09:09:42;22.60;99.90
11043;DHT22;5574;48.786;10.120;2022-08-21T09:12:19;22.70;99.90
11043;DHT22;5574;48.786;10.120;2022-08-21T09:15:01;22.80;99.90
11043;DHT22;5574;48.786;10.120;2022-08-21T09:17:39;22.80;99.90
11043;DHT22;5574;48.786;10.120;2022-08-21T09:20:18;22.90;99.90
11043;DHT22;5574;48.786;10.120;2022-08-21T09:22:58;23.00;99.90
11043;DHT22;5574;48.786;10.120;2022-08-21T09:25:33;23.00;99.90
11043;DHT22;5574;48.786;10.120;2022-08-21T09:28:00;23.00;99.90
11043;DHT22;5574;48.786;10.120;2022-08-21T09:30:29;23.10;99.40
11043;DHT22;5574;48.786;10.120;2022-08-21T09:32:56;23.20;99.90
11043;DHT22;5574;48.786;10.120;2022-08-21T09:35:24;23.20;98.30
11043;DHT22;5574;48.786;10.120;2022-08-21T09:37:55;23.30;97.80
11043;DHT22;5574;48.786;10.120;2022-08-21T09:40:29;23.40;98.80
11043;DHT22;5574;48.786;10.120;2022-08-21T09:43:03;23.50;97.70
11043;DHT22;5574;48.786;10.120;2022-08-21T09:45:31;23.60;96.60
11043;DHT22;5574;48.786;10.120;2022-08-21T09:48:08;23.70;97.80
11043;DHT22;5574;48.786;10.120;2022-08-21T09:50:36;23.70;95.20
11043;DHT22;5574;48.786;10.120;2022-08-21T09:53:03;23.80;98.50
11043;DHT22;5574;48.786;10.120;2022-08-21T09:55:34;23.90;95.90
11043;DHT22;5574;48.786;10.120;2022-08-21T09:58:31;24.00;95.90
11043;DHT22;5574;48.786;10.120;2022-08-21T10:00:59;24.10;95.40
11043;DHT22;5574;48.786;10.120;2022-08-21T10:03:26;24.20;96.50
11043;DHT22;5574;48.786;10.120;2022-08-21T10:05:57;24.20;95.30
11043;DHT22;5574;48.786;10.120;2022-08-21T10:08:26;24.30;93.20
11043;DHT22;5574;48.786;10.120;2022-08-21T10:10:56;24.40;94.10
11043;DHT22;5574;48.786;10.120;2022-08-21T10:13:32;24.40;95.60
11043;DHT22;5574;48.786;10.120;2022-08-21T10:16:11;24.50;92.10
11043;DHT22;5574;48.786;10.120;2022-08-21T10:18:41;24.50;93.30
11043;DHT22;5574;48.786;10.120;2022-08-21T10:21:15;24.70;92.00
11043;DHT22;5574;48.786;10.120;2022-08-21T10:23:53;24.70;92.60
11043;DHT22;5574;48.786;10.120;2022-08-21T10:26:29;24.70;92.50
11043;DHT22;5574;48.786;10.120;2022-08-21T10:29:03;24.70;92.60
11043;DHT22;5574;48.786;10.120;2022-08-21T10:31:43;24.60;93.30
11043;DHT22;5574;48.786;10.120;2022-08-21T10:34:23;24.80;94.80
11043;DHT22;5574;48.786;10.120;2022-08-21T10:37:06;24.90;92.90
11043;DHT22;5574;48.786;10.120;2022-08-21T10:39:42;25.10;94.20
11043;DHT22;5574;48.786;10.120;2022-08-21T10:42:22;25.00;91.80
11043;DHT22;5574;48.786;10.120;2022-08-21T10:45:00;24.90;93.20
11043;DHT22;5574;48.786;10.120;2022-08-21T10:47:34;25.10;92.30
11043;DHT22;5574;48.786;10.120;2022-08-21T10:50:08;24.90;91.00
11043;DHT22;5574;48.786;10.120;2022-08-21T10:52:51;25.10;92.60
11043;DHT22;5574;48.786;10.120;2022-08-21T10:55:22;25.20;93.00
11043;DHT22;5574;48.786;10.120;2022-08-21T10:57:55;25.30;91.40
11043;DHT22;5574;48.786;10.120;2022-08-21T11:00:26;25.50;92.10
11043;DHT22;5574;48.786;10.120;2022-08-21T11:03:00;25.50;91.30
11043;DHT22;5574;48.786;10.120;2022-08-21T11:05:31;25.70;91.90
11043;DHT22;5574;48.786;10.120;2022-08-21T11:08:03;25.30;89.90
11043;DHT22;5574;48.786;10.120;2022-08-21T11:10:37;24.90;90.30
11043;DHT22;5574;48.786;10.120;2022-08-21T11:13:11;24.70;90.00
11043;DHT22;5574;48.786;10.120;2022-08-21T11:15:45;24.90;88.80
11043;DHT22;5574;48.786;10.120;2022-08-21T11:18:21;25.20;90.30
11043;DHT22;5574;48.786;10.120;2022-08-21T11:20:51;25.40;87.90
11043;DHT22;5574;48.786;10.120;2022-08-21T11:23:26;25.20;87.80
11043;DHT22;5574;48.786;10.120;2022-08-21T11:26:00;25.30;88.30
11043;DHT22;5574;48.786;10.120;2022-08-21T11:28:30;25.50;86.20
11043;DHT22;5574;48.786;10.120;2022-08-21T11:31:03;25.60;82.90
11043;DHT22;5574;48.786;10.120;2022-08-21T11:33:44;25.80;85.80
11043;DHT22;5574;48.786;10.120;2022-08-21T11:36:18;26.00;81.40
11043;DHT22;5574;48.786;10.120;2022-08-21T11:38:53;26.00;79.20
11043;DHT22;5574;48.786;10.120;2022-08-21T11:41:28;26.10;80.00
11043;DHT22;5574;48.786;10.120;2022-08-21T11:44:03;26.10;74.50
11043;DHT22;5574;48.786;10.120;2022-08-21T11:46:48;26.20;79.00
11043;DHT22;5574;48.786;10.120;2022-08-21T11:49:34;26.10;74.50
11043;DHT22;5574;48.786;10.120;2022-08-21T11:52:08;26.30;75.70
11043;DHT22;5574;48.786;10.120;2022-08-21T11:54:43;26.30;72.50
11043;DHT22;5574;48.786;10.120;2022-08-21T11:57:15;26.30;76.30
11043;DHT22;5574;48.786;10.120;2022-08-21T11:59:48;26.30;75.40
11043;DHT22;5574;48.786;10.120;2022-08-21T12:02:20;26.30;74.90
11043;DHT22;5574;48.786;10.120;2022-08-21T12:04:50;26.30;75.60
11043;DHT22;5574;48.786;10.120;2022-08-21T12:07:31;26.30;72.70
11043;DHT22;5574;48.786;10.120;2022-08-21T12:10:05;26.40;74.80
11043;DHT22;5574;48.786;10.120;2022-08-21T12:12:35;26.40;74.20
11043;DHT22;5574;48.786;10.120;2022-08-21T12:15:15;26.50;71.60
11043;DHT22;5574;48.786;10.120;2022-08-21T12:17:57;26.50;72.40
11043;DHT22;5574;48.786;10.120;2022-08-21T12:20:38;26.70;74.00
11043;DHT22;5574;48.786;10.120;2022-08-21T12:23:17;26.80;71.20
11043;DHT22;5574;48.786;10.120;2022-08-21T12:25:58;26.60;72.10
11043;DHT22;5574;48.786;10.120;2022-08-21T12:28:26;26.40;70.30
11043;DHT22;5574;48.786;10.120;2022-08-21T12:30:54;26.40;71.90
11043;DHT22;5574;48.786;10.120;2022-08-21T12:33:24;26.50;73.80
11043;DHT22;5574;48.786;10.120;2022-08-21T12:36:00;26.70;73.00
11043;DHT22;5574;48.786;10.120;2022-08-21T12:38:28;26.80;69.40
11043;DHT22;5574;48.786;10.120;2022-08-21T12:40:59;26.70;70.50
11043;DHT22;5574;48.786;10.120;2022-08-21T12:43:30;26.50;72.20
11043;DHT22;5574;48.786;10.120;2022-08-21T12:45:59;26.40;71.60
11043;DHT22;5574;48.786;10.120;2022-08-21T12:48:31;26.60;71.50
11043;DHT22;5574;48.786;10.120;2022-08-21T12:51:09;26.70;71.70
11043;DHT22;5574;48.786;10.120;2022-08-21T12:53:42;26.80;71.90
11043;DHT22;5574;48.786;10.120;2022-08-21T12:56:14;26.90;71.10
11043;DHT22;5574;48.786;10.120;2022-08-21T12:58:45;26.80;69.40
11043;DHT22;5574;48.786;10.120;2022-08-21T13:01:19;27.00;70.50
11043;DHT22;5574;48.786;10.120;2022-08-21T13:03:47;27.00;69.70
11043;DHT22;5574;48.786;10.120;2022-08-21T13:06:15;27.20;70.00
11043;DHT22;5574;48.786;10.120;2022-08-21T13:08:43;27.30;67.20
11043;DHT22;5574;48.786;10.120;2022-08-21T13:11:16;27.20;66.90
11043;DHT22;5574;48.786;10.120;2022-08-21T13:13:48;26.70;64.90
11043;DHT22;5574;48.786;10.120;2022-08-21T13:16:19;26.30;67.00
11043;DHT22;5574;48.786;10.120;2022-08-21T13:18:54;26.40;71.80
11043;DHT22;5574;48.786;10.120;2022-08-21T13:21:26;26.20;71.20
11043;DHT22;5574;48.786;10.120;2022-08-21T13:23:53;25.80;70.10
11043;DHT22;5574;48.786;10.120;2022-08-21T13:26:21;25.60;72.50
11043;DHT22;5574;48.786;10.120;2022-08-21T13:28:49;25.30;74.60
11043;DHT22;5574;48.786;10.120;2022-08-21T13:31:20;25.10;74.40
11043;DHT22;5574;48.786;10.120;2022-08-21T13:33:48;25.00;70.70
11043;DHT22;5574;48.786;10.120;2022-08-21T13:36:20;24.90;74.30
11043;DHT22;5574;48.786;10.120;2022-08-21T13:38:47;24.80;76.80
11043;DHT22;5574;48.786;10.120;2022-08-21T13:41:22;24.70;81.40
11043;DHT22;5574;48.786;10.120;2022-08-21T13:43:57;24.50;72.50
11043;DHT22;5574;48.786;10.120;2022-08-21T13:46:26;24.50;74.20
11043;DHT22;5574;48.786;10.120;2022-08-21T13:48:54;24.80;79.80
11043;DHT22;5574;48.786;10.120;2022-08-21T13:51:22;25.10;74.10
11043;DHT22;5574;48.786;10.120;2022-08-21T13:53:51;25.10;75.30
11043;DHT22;5574;48.786;10.120;2022-08-21T13:56:25;25.30;72.40
11043;DHT22;5574;48.786;10.120;2022-08-21T13:58:53;25.60;73.80
11043;DHT22;5574;48.786;10.120;2022-08-21T14:01:23;25.70;72.00
11043;DHT22;5574;48.786;10.120;2022-08-21T14:03:54;25.80;73.80
11043;DHT22;5574;48.786;10.120;2022-08-21T14:06:24;26.00;66.00
11043;DHT22;5574;48.786;10.120;2022-08-21T14:08:54;26.00;67.20
11043;DHT22;5574;48.786;10.120;2022-08-21T14:11:23;25.90;66.80
11043;DHT22;5574;48.786;10.120;2022-08-21T14:13:56;26.00;66.00
11043;DHT22;5574;48.786;10.120;2022-08-21T14:16:27;26.00;65.30
11043;DHT22;5574;48.786;10.120;2022-08-21T14:19:09;25.90;65.00
11043;DHT22;5574;48.786;10.120;2022-08-21T14:21:37;25.80;65.20
11043;DHT22;5574;48.786;10.120;2022-08-21T14:24:10;25.80;66.40
11043;DHT22;5574;48.786;10.120;2022-08-21T14:26:45;25.90;64.10
11043;DHT22;5574;48.786;10.120;2022-08-21T14:29:14;26.00;61.30
11043;DHT22;5574;48.786;10.120;2022-08-21T14:31:41;26.30;64.80
11043;DHT22;5574;48.786;10.120;2022-08-21T14:34:11;26.10;62.00
11043;DHT22;5574;48.786;10.120;2022-08-21T14:36:39;26.30;59.80
11043;DHT22;5574;48.786;10.120;2022-08-21T14:39:05;26.40;58.30
11043;DHT22;5574;48.786;10.120;2022-08-21T14:41:32;26.50;60.50
11043;DHT22;5574;48.786;10.120;2022-08-21T14:44:00;26.60;63.40
11043;DHT22;5574;48.786;10.120;2022-08-21T14:46:29;26.50;60.30
11043;DHT22;5574;48.786;10.120;2022-08-21T14:48:57;26.60;63.80
11043;DHT22;5574;48.786;10.120;2022-08-21T14:51:24;26.70;59.80
11043;DHT22;5574;48.786;10.120;2022-08-21T14:53:50;26.80;59.40
11043;DHT22;5574;48.786;10.120;2022-08-21T14:56:17;26.90;58.70
11043;DHT22;5574;48.786;10.120;2022-08-21T14:58:47;27.00;60.50
11043;DHT22;5574;48.786;10.120;2022-08-21T15:01:17;27.00;59.20
11043;DHT22;5574;48.786;10.120;2022-08-21T15:03:45;27.00;61.00
11043;DHT22;5574;48.786;10.120;2022-08-21T15:06:13;27.00;59.10
11043;DHT22;5574;48.786;10.120;2022-08-21T15:08:41;27.00;60.10
11043;DHT22;5574;48.786;10.120;2022-08-21T15:11:12;27.00;64.00
11043;DHT22;5574;48.786;10.120;2022-08-21T15:13:42;27.00;58.90
11043;DHT22;5574;48.786;10.120;2022-08-21T15:16:11;27.10;61.30
11043;DHT22;5574;48.786;10.120;2022-08-21T15:18:39;27.10;59.60
11043;DHT22;5574;48.786;10.120;2022-08-21T15:21:07;27.10;59.90
11043;DHT22;5574;48.786;10.120;2022-08-21T15:23:33;27.20;59.60
11043;DHT22;5574;48.786;10.120;2022-08-21T15:26:00;27.20;60.40
11043;DHT22;5574;48.786;10.120;2022-08-21T15:28:27;27.20;61.00
11043;DHT22;5574;48.786;10.120;2022-08-21T15:30:54;27.00;62.20
11043;DHT22;5574;48.786;10.120;2022-08-21T15:33:20;26.90;61.70
11043;DHT22;5574;48.786;10.120;2022-08-21T15:35:49;26.80;64.20
11043;DHT22;5574;48.786;10.120;2022-08-21T15:38:15;26.60;63.30
11043;DHT22;5574;48.786;10.120;2022-08-21T15:40:43;26.60;64.50
11043;DHT22;5574;48.786;10.120;2022-08-21T15:43:19;26.50;67.70
11043;DHT22;5574;48.786;10.120;2022-08-21T15:45:47;26.50;66.10
11043;DHT22;5574;48.786;10.120;2022-08-21T15:48:14;26.40;64.70